Data for 05/07/2015

Time Sea-Level Adjusted Pressure Absolute Pressure Temperature Relative Humidity Dew Point   
(mb) (inHg) (mb) (inHg) (C) (F) (%) (C) (F)
00:05 1015 29.97 844 24.92 7.2 45 51 -2.3 27.9
00:10 1015 29.97 844 24.92 7.2 45 50 -2.4 27.7
00:15 1015 29.97 844 24.92 7.2 45 50 -2.4 27.7
00:20 1015 29.97 844 24.92 7.2 44.9 51 -2.2 28
00:25 1015 29.97 844 24.92 7.1 44.8 52 -2.2 28.1
00:30 1015 29.97 844 24.92 7.1 44.8 51 -2.2 28
00:35 1015 29.97 844 24.92 7.1 44.7 52 -2.2 28
00:40 1015 29.97 844 24.92 7 44.7 52 -2.1 28.2
00:45 1015 29.97 844 24.92 7 44.6 52 -2.1 28.2
00:50 1015 29.97 844 24.92 7 44.5 51 -2.3 27.8
00:55 1015 29.97 844 24.92 7 44.5 51 -2.4 27.7
01:00 1015 29.97 844 24.92 6.9 44.5 51 -2.5 27.6
01:05 1015 29.97 844 24.92 6.9 44.4 51 -2.5 27.5
01:10 1015 29.97 844 24.92 6.9 44.3 52 -2.4 27.7
01:15 1015 29.97 844 24.92 6.8 44.2 52 -2.5 27.5
01:20 1015 29.97 844 24.92 6.7 44.1 52 -2.4 27.7
01:25 1015 29.97 844 24.92 6.7 44 52 -2.4 27.6
01:30 1015 29.97 844 24.92 6.6 43.9 52 -2.5 27.5
01:35 1015 29.97 844 24.92 6.6 43.8 53 -2.4 27.8
01:40 1015 29.97 844 24.92 6.5 43.7 54 -2.1 28.3
01:45 1015 29.97 844 24.92 6.3 43.3 56 -1.9 28.6
01:50 1015 29.97 844 24.92 6.1 42.9 57 -1.8 28.7
01:55 1015 29.97 844 24.92 5.9 42.7 58 -1.8 28.8
02:00 1015 29.97 844 24.92 5.8 42.5 59 -1.5 29.3
02:05 1015 29.97 844 24.92 5.6 42.1 61 -1.2 29.8
02:10 1015 29.97 844 24.92 5.5 41.8 62 -1.2 29.8
02:15 1015 29.97 844 24.92 5.4 41.7 63 -1.1 30
02:20 1015 29.97 844 24.92 5.3 41.5 63 -1.1 30
02:25 1015 29.97 844 24.92 5.3 41.5 64 -1 30.2
02:30 1015 29.97 844 24.92 5.2 41.3 65 -0.9 30.3
02:35 1015 29.97 844 24.92 5.1 41.2 65 -0.9 30.4
02:40 1015 29.97 844 24.92 5 41 66 -0.8 30.5
02:45 1015 29.97 844 24.92 4.8 40.7 67 -0.8 30.6
02:50 1015 29.97 845 24.95 4.8 40.6 67 -0.9 30.5
02:55 1015 29.97 845 24.95 4.6 40.3 68 -0.7 30.8
03:00 1015 29.97 845 24.95 4.4 39.8 70 -0.7 30.8
03:05 1015 29.97 845 24.95 4.2 39.5 71 -0.6 31
03:10 1015 29.97 845 24.95 4 39.2 73 -0.4 31.2
03:15 1016 30 845 24.95 3.9 39 73 -0.6 31
03:20 1016 30 845 24.95 3.8 38.9 74 -0.4 31.3
03:25 1016 30 845 24.95 3.8 38.8 74 -0.4 31.2
03:30 1016 30 845 24.95 3.7 38.6 75 -0.3 31.5
03:35 1016 30 845 24.95 3.6 38.4 76 -0.2 31.6
03:40 1016 30 845 24.95 3.5 38.2 76 -0.4 31.3
03:45 1016 30 845 24.95 3.4 38 79 0.1 32.2
03:50 1016 30 845 24.95 3.2 37.7 79 -0.1 31.8
03:55 1016 30 845 24.95 3.1 37.6 79 -0.1 31.8
04:00 1016 30 845 24.95 3 37.4 81 0.1 32.3
04:05 1016 30 845 24.95 2.9 37.2 81 -0 32
04:10 1016 30 845 24.95 2.8 37 83 0.1 32.2
04:15 1016 30 845 24.95 2.7 36.8 83 0.1 32.2
04:20 1016 30 845 24.95 2.5 36.6 83 -0 32
04:25 1016 30 846 24.98 2.5 36.5 85 0.2 32.3
04:30 1016 30 846 24.98 2.3 36.2 86 0.2 32.3
04:35 1016 30 846 24.98 2.2 35.9 86 0.1 32.2
04:40 1017 30.03 846 24.98 2.1 35.7 87 0.1 32.1
04:45 1017 30.03 846 24.98 2 35.5 87 -0 31.9
04:50 1017 30.03 846 24.98 1.9 35.5 87 0 32
04:55 1017 30.03 846 24.98 1.8 35.3 88 0.1 32.1
05:00 1017 30.03 846 24.98 1.7 35 88 -0 32
05:05 1017 30.03 846 24.98 1.6 34.9 88 -0.2 31.7
05:10 1017 30.03 846 24.98 1.6 34.9 88 -0.2 31.7
05:15 1017 30.03 846 24.98 1.5 34.8 88 -0.2 31.6
05:20 1017 30.03 846 24.98 1.5 34.7 89 -0.1 31.8
05:25 1017 30.03 846 24.98 1.4 34.5 90 -0.1 31.9
05:30 1017 30.03 846 24.98 1.4 34.4 90 -0.1 31.8
05:35 1017 30.03 846 24.98 1.4 34.5 90 -0.1 31.8
05:40 1017 30.03 846 24.98 1.4 34.5 89 -0.2 31.7
05:45 1017 30.03 846 24.98 1.3 34.4 90 -0.1 31.7
05:50 1017 30.03 846 24.98 1.3 34.3 90 -0.2 31.6
05:55 1017 30.03 846 24.98 1.2 34.1 90 -0.3 31.5
06:00 1017 30.03 846 24.98 1.1 33.9 91 -0.3 31.5
06:05 1017 30.03 847 25.01 1.1 33.9 91 -0.3 31.5
06:10 1017 30.03 847 25.01 1.1 33.9 91 -0.2 31.6
06:15 1017 30.03 847 25.01 1.2 34.1 91 -0.2 31.7
06:20 1017 30.03 847 25.01 1.3 34.3 90 -0.2 31.7
06:25 1018 30.06 847 25.01 1.4 34.5 90 -0.1 31.8
06:30 1018 30.06 847 25.01 1.4 34.6 89 -0.2 31.7
06:35 1018 30.06 847 25.01 1.5 34.7 89 -0.2 31.7
06:40 1018 30.06 847 25.01 1.5 34.7 88 -0.2 31.7
06:45 1018 30.06 847 25.01 1.5 34.7 89 -0.2 31.7
06:50 1018 30.06 847 25.01 1.4 34.5 88 -0.4 31.4
06:55 1018 30.06 847 25.01 1.4 34.5 88 -0.3 31.4
07:00 1018 30.06 847 25.01 1.3 34.4 87 -0.6 31
07:05 1018 30.06 847 25.01 1.4 34.5 87 -0.5 31.1
07:10 1018 30.06 847 25.01 1.4 34.6 87 -0.5 31
07:15 1018 30.06 847 25.01 1.5 34.7 87 -0.5 31.2
07:20 1018 30.06 847 25.01 1.5 34.6 86 -0.6 30.9
07:25 1018 30.06 847 25.01 1.4 34.6 87 -0.5 31
07:30 1018 30.06 847 25.01 1.4 34.5 87 -0.6 30.9
07:35 1018 30.06 847 25.01 1.4 34.5 87 -0.5 31.1
07:40 1018 30.06 847 25.01 1.4 34.4 87 -0.6 30.9
07:45 1018 30.06 847 25.01 1.4 34.4 86 -0.8 30.6
07:50 1018 30.06 847 25.01 1.4 34.6 86 -0.7 30.8
07:55 1018 30.06 847 25.01 1.4 34.4 87 -0.5 31
08:00 1018 30.06 847 25.01 1.4 34.5 87 -0.6 30.9
08:05 1018 30.06 847 25.01 1.3 34.4 86 -0.7 30.8
08:10 1018 30.06 847 25.01 1.3 34.4 86 -0.7 30.8
08:15 1018 30.06 847 25.01 1.3 34.4 86 -0.8 30.6
08:20 1018 30.06 847 25.01 1.4 34.5 84 -1 30.2
08:25 1018 30.06 847 25.01 1.3 34.3 85 -0.9 30.4
08:30 1018 30.06 847 25.01 1.2 34.2 85 -1 30.2
08:35 1018 30.06 847 25.01 1.2 34.1 87 -0.8 30.5
08:40 1018 30.06 847 25.01 1.3 34.3 84 -1.1 30.1
08:45 1018 30.06 848 25.04 1.3 34.4 84 -1.1 30
08:50 1018 30.06 847 25.01 1.4 34.5 84 -1.1 30.1
08:55 1018 30.06 848 25.04 1.5 34.6 83 -1 30.1
09:00 1018 30.06 848 25.04 1.5 34.7 84 -1 30.3
09:05 1018 30.06 848 25.04 1.5 34.7 84 -0.9 30.5
09:10 1018 30.06 848 25.04 1.6 34.8 83 -1.1 30.1
09:15 1018 30.06 848 25.04 1.6 34.9 85 -0.7 30.8
09:20 1018 30.06 848 25.04 1.7 35.1 84 -0.7 30.8
09:25 1019 30.09 848 25.04 1.8 35.2 84 -0.6 30.9
09:30 1019 30.09 848 25.04 1.8 35.2 85 -0.5 31.1
09:35 1019 30.09 848 25.04 1.9 35.4 84 -0.5 31.1
09:40 1019 30.09 848 25.04 2 35.6 84 -0.4 31.2
09:45 1019 30.09 848 25.04 1.9 35.5 85 -0.3 31.5
09:50 1019 30.09 848 25.04 1.9 35.4 85 -0.4 31.2
09:55 1019 30.09 848 25.04 1.9 35.4 85 -0.3 31.4
10:00 1019 30.09 848 25.04 2.1 35.7 85 -0.2 31.6
10:05 1019 30.09 848 25.04 2.1 35.8 83 -0.5 31.1
10:10 1019 30.09 848 25.04 2.2 36 83 -0.4 31.3
10:15 1019 30.09 848 25.04 2.3 36.2 81 -0.6 30.8
10:20 1019 30.09 848 25.04 2.4 36.3 82 -0.4 31.2
10:25 1019 30.09 848 25.04 2.4 36.4 83 -0.2 31.6
10:30 1019 30.09 848 25.04 2.5 36.5 81 -0.4 31.3
10:35 1019 30.09 848 25.04 2.4 36.3 80 -0.7 30.7
10:40 1019 30.09 848 25.04 2.3 36.2 77 -1.4 29.5
10:45 1019 30.09 848 25.04 2.3 36.1 76 -1.5 29.2
10:50 1019 30.09 848 25.04 2.2 35.9 79 -1.1 30.1
10:55 1019 30.09 848 25.04 2 35.6 81 -1 30.2
11:00 1019 30.09 848 25.04 1.9 35.4 81 -0.9 30.3
11:05 1019 30.09 848 25.04 1.9 35.4 80 -1.1 30
11:10 1019 30.09 848 25.04 1.8 35.2 82 -1 30.2
11:15 1019 30.09 848 25.04 1.7 35.1 82 -0.9 30.3
11:20 1019 30.09 848 25.04 1.7 35.1 82 -1 30.2
11:25 1019 30.09 848 25.04 1.7 35.1 82 -1 30.2
11:30 1019 30.09 848 25.04 1.7 35.1 80 -1.3 29.6
11:35 1019 30.09 848 25.04 1.6 34.9 82 -1.1 30
11:40 1019 30.09 848 25.04 1.6 34.9 84 -0.8 30.5
11:45 1019 30.09 848 25.04 1.8 35.2 83 -0.8 30.6
11:50 1019 30.09 848 25.04 1.8 35.2 81 -1.2 29.9
11:55 1019 30.09 848 25.04 1.9 35.4 81 -1 30.2
12:00 1019 30.09 848 25.04 1.8 35.2 82 -1 30.2
12:05 1019 30.09 848 25.04 1.8 35.2 81 -1.2 29.9
12:10 1019 30.09 848 25.04 1.7 35.1 80 -1.3 29.7
12:15 1019 30.09 848 25.04 1.7 35 83 -0.9 30.3
12:20 1019 30.09 848 25.04 1.7 35.1 82 -1 30.2
12:25 1019 30.09 848 25.04 1.6 34.9 81 -1.3 29.6
12:30 1019 30.09 848 25.04 1.6 34.8 80 -1.5 29.3
12:35 1019 30.09 848 25.04 1.7 35 81 -1.2 29.8
12:40 1019 30.09 848 25.04 1.7 35.1 78 -1.6 29
12:45 1019 30.09 848 25.04 1.7 35.1 79 -1.6 29.2
12:50 1019 30.09 848 25.04 1.8 35.3 80 -1.4 29.6
12:55 1019 30.09 848 25.04 2 35.6 79 -1.3 29.7
13:00 1019 30.09 848 25.04 2.3 36.1 79 -1 30.2
13:05 1019 30.09 848 25.04 2.7 36.9 76 -1.1 30
13:10 1019 30.09 848 25.04 2.9 37.3 77 -0.7 30.7
13:15 1019 30.09 848 25.04 2.8 37.1 78 -0.7 30.8
13:20 1019 30.09 848 25.04 3 37.4 74 -1.3 29.7
13:25 1018 30.06 848 25.04 3.1 37.6 74 -1 30.2
13:30 1019 30.09 848 25.04 3.2 37.7 72 -1.5 29.4
13:35 1018 30.06 848 25.04 3.2 37.7 72 -1.3 29.6
13:40 1018 30.06 848 25.04 3.1 37.5 72 -1.4 29.4
13:45 1018 30.06 848 25.04 3.4 38.1 71 -1.5 29.4
13:50 1018 30.06 848 25.04 3.6 38.5 71 -1.1 30
13:55 1018 30.06 848 25.04 4 39.2 69 -1.1 29.9
14:00 1018 30.06 848 25.04 4.4 39.8 67 -1.3 29.7
14:05 1018 30.06 848 25.04 4.8 40.6 66 -1.1 29.9
14:10 1018 30.06 848 25.04 4.8 40.6 65 -1.3 29.7
14:15 1018 30.06 847 25.01 4.7 40.4 63 -1.7 28.9
14:20 1018 30.06 847 25.01 4.4 39.9 62 -2.3 27.9
14:25 1018 30.06 847 25.01 4.5 40.1 61 -2.3 27.8
14:30 1018 30.06 847 25.01 4.4 39.8 60 -2.8 26.9
14:35 1018 30.06 847 25.01 4.1 39.5 61 -2.7 27.2
14:40 1018 30.06 847 25.01 4.2 39.6 58 -3.3 26.1
14:45 1018 30.06 847 25.01 4.2 39.6 60 -2.8 26.9
14:50 1018 30.06 847 25.01 4.2 39.5 62 -2.5 27.4
14:55 1018 30.06 847 25.01 4.2 39.6 61 -2.5 27.4
15:00 1018 30.06 847 25.01 4.3 39.7 61 -2.7 27.2
15:05 1018 30.06 847 25.01 4.4 39.9 61 -2.6 27.4
15:10 1018 30.06 847 25.01 4.7 40.4 62 -2 28.4
15:15 1018 30.06 847 25.01 4.8 40.7 62 -1.8 28.8
15:20 1018 30.06 847 25.01 5.1 41.1 62 -1.7 29
15:25 1018 30.06 847 25.01 5.1 41.2 62 -1.6 29.2
15:30 1018 30.06 847 25.01 4.9 40.8 59 -2.5 27.6
15:35 1018 30.06 847 25.01 5 41 60 -2.1 28.2
15:40 1018 30.06 847 25.01 5.2 41.3 58 -2.4 27.7
15:45 1018 30.06 847 25.01 5.3 41.6 59 -2 28.3
15:50 1018 30.06 847 25.01 5.3 41.6 60 -1.7 28.9
15:55 1018 30.06 847 25.01 5.2 41.4 62 -1.4 29.5
16:00 1018 30.06 847 25.01 5.1 41.2 62 -1.6 29.1
16:05 1018 30.06 847 25.01 5 41 60 -2.2 28
16:10 1018 30.06 847 25.01 5.2 41.4 60 -1.9 28.6
16:15 1017 30.03 847 25.01 5.1 41.2 60 -2 28.4
16:20 1018 30.06 847 25.01 5.4 41.7 56 -2.6 27.2
16:25 1017 30.03 847 25.01 5.5 41.9 56 -2.6 27.4
16:30 1017 30.03 847 25.01 5.3 41.5 58 -2.4 27.7
16:35 1017 30.03 847 25.01 5.3 41.6 57 -2.6 27.3
16:40 1017 30.03 847 25.01 5.5 42 56 -2.6 27.4
16:45 1017 30.03 847 25.01 5.2 41.3 57 -2.5 27.4
16:50 1017 30.03 847 25.01 5.1 41.1 58 -2.4 27.7
16:55 1018 30.06 847 25.01 4.8 40.7 59 -2.4 27.6
17:00 1018 30.06 847 25.01 4.8 40.7 60 -2.4 27.7
17:05 1018 30.06 847 25.01 4.9 40.8 61 -2 28.4
17:10 1017 30.03 847 25.01 5 41.1 60 -2.1 28.3
17:15 1017 30.03 847 25.01 4.9 40.8 62 -1.8 28.7
17:20 1017 30.03 847 25.01 4.7 40.5 61 -2.2 28
17:25 1017 30.03 847 25.01 4.6 40.4 62 -2 28.4
17:30 1017 30.03 847 25.01 4.5 40.1 65 -1.6 29.1
17:35 1017 30.03 847 25.01 4.5 40.1 64 -1.8 28.8
17:40 1017 30.03 847 25.01 4.5 40 65 -1.6 29.1
17:45 1017 30.03 847 25.01 4.4 40 67 -1.2 29.8
17:50 1017 30.03 847 25.01 4.3 39.8 65 -1.6 29.1
17:55 1018 30.06 847 25.01 4.3 39.8 65 -1.6 29
18:00 1018 30.06 847 25.01 4.3 39.7 64 -1.9 28.6
18:05 1018 30.06 847 25.01 4.2 39.6 65 -1.7 29
18:10 1018 30.06 847 25.01 4.1 39.4 65 -1.9 28.6
18:15 1018 30.06 847 25.01 4 39.3 65 -1.9 28.6
18:20 1018 30.06 847 25.01 4.1 39.3 66 -1.7 29
18:25 1018 30.06 847 25.01 4.1 39.3 66 -1.7 28.9
18:30 1018 30.06 847 25.01 4.1 39.3 67 -1.6 29.1
18:35 1018 30.06 847 25.01 4 39.2 67 -1.6 29.1
18:40 1018 30.06 847 25.01 4 39.2 67 -1.5 29.2
18:45 1018 30.06 847 25.01 4 39.2 67 -1.5 29.2
18:50 1018 30.06 847 25.01 3.9 39.1 69 -1.3 29.7
18:55 1018 30.06 847 25.01 3.9 38.9 70 -1.1 29.9
19:00 1018 30.06 847 25.01 3.8 38.8 69 -1.3 29.7
19:05 1018 30.06 847 25.01 3.7 38.7 71 -1 30.1
19:10 1018 30.06 847 25.01 3.7 38.7 72 -0.9 30.4
19:15 1018 30.06 847 25.01 3.7 38.6 73 -0.7 30.8
19:20 1018 30.06 848 25.04 3.7 38.6 74 -0.6 30.9
19:25 1018 30.06 848 25.04 3.6 38.5 74 -0.6 30.9
19:30 1018 30.06 848 25.04 3.6 38.4 74 -0.6 30.8
19:35 1018 30.06 848 25.04 3.5 38.4 74 -0.6 30.9
19:40 1018 30.06 848 25.04 3.5 38.3 74 -0.6 30.9
19:45 1018 30.06 848 25.04 3.5 38.2 75 -0.5 31.1
19:50 1018 30.06 848 25.04 3.4 38.2 76 -0.5 31.2
19:55 1018 30.06 848 25.04 3.4 38.1 76 -0.5 31.1
20:00 1019 30.09 848 25.04 3.4 38.1 76 -0.5 31.1
20:05 1019 30.09 848 25.04 3.3 37.9 76 -0.5 31
20:10 1019 30.09 848 25.04 3.3 37.9 76 -0.6 31
20:15 1019 30.09 848 25.04 3.3 38 76 -0.6 30.9
20:20 1019 30.09 848 25.04 3.3 37.9 76 -0.6 31
20:25 1019 30.09 848 25.04 3.3 37.9 75 -0.7 30.8
20:30 1019 30.09 848 25.04 3.2 37.8 75 -0.7 30.8
20:35 1019 30.09 848 25.04 3.2 37.8 75 -0.8 30.6
20:40 1019 30.09 848 25.04 3.3 37.9 74 -0.8 30.5
20:45 1019 30.09 848 25.04 3.3 37.9 75 -0.8 30.6
20:50 1019 30.09 848 25.04 3.2 37.8 74 -0.9 30.4
20:55 1019 30.09 848 25.04 3.3 37.9 75 -0.7 30.7
21:00 1019 30.09 848 25.04 3.3 37.9 76 -0.6 30.9
21:05 1019 30.09 848 25.04 3.2 37.7 76 -0.6 30.9
21:10 1019 30.09 848 25.04 3.2 37.8 75 -0.7 30.7
21:15 1019 30.09 848 25.04 3.2 37.7 76 -0.7 30.8
21:20 1019 30.09 848 25.04 3.2 37.7 75 -0.8 30.6
21:25 1019 30.09 848 25.04 3.1 37.7 75 -0.9 30.4
21:30 1019 30.09 848 25.04 3.1 37.6 75 -0.9 30.3
21:35 1019 30.09 848 25.04 3.2 37.7 74 -1 30.3
21:40 1019 30.09 848 25.04 3.2 37.7 75 -0.9 30.5
21:45 1019 30.09 848 25.04 3.2 37.7 74 -1 30.2
21:50 1019 30.09 848 25.04 3.1 37.7 74 -1 30.2
21:55 1019 30.09 848 25.04 3.2 37.7 74 -1 30.2
22:00 1019 30.09 848 25.04 3.2 37.7 74 -1.1 30.1
22:05 1019 30.09 848 25.04 3.2 37.7 74 -1 30.1
22:10 1019 30.09 848 25.04 3.2 37.8 73 -1.1 30
22:15 1019 30.09 848 25.04 3.2 37.8 74 -1 30.1
22:20 1019 30.09 848 25.04 3.2 37.8 74 -1 30.2
22:25 1019 30.09 848 25.04 3.2 37.7 74 -1 30.3
22:30 1019 30.09 848 25.04 3.1 37.7 74 -1 30.1
22:35 1019 30.09 848 25.04 3.1 37.7 74 -1 30.2
22:40 1019 30.09 848 25.04 3.1 37.7 74 -1 30.3
22:45 1019 30.09 848 25.04 3.1 37.6 75 -0.9 30.4
22:50 1019 30.09 848 25.04 3.1 37.5 75 -1 30.2
22:55 1019 30.09 848 25.04 3.1 37.5 75 -1 30.2
23:00 1019 30.09 848 25.04 3 37.5 75 -0.9 30.3
23:05 1019 30.09 848 25.04 3 37.4 75 -0.9 30.4
23:10 1019 30.09 848 25.04 3 37.4 75 -0.9 30.3
23:15 1019 30.09 848 25.04 3 37.4 75 -0.9 30.4
23:20 1019 30.09 848 25.04 3 37.4 75 -1 30.3
23:25 1019 30.09 848 25.04 3 37.4 76 -0.9 30.4
23:30 1019 30.09 848 25.04 3 37.3 76 -0.9 30.4
23:35 1019 30.09 848 25.04 3 37.3 76 -0.9 30.4
23:40 1019 30.09 848 25.04 3 37.4 75 -0.9 30.4
23:45 1019 30.09 848 25.04 3 37.4 75 -0.9 30.3
23:50 1019 30.09 848 25.04 3 37.4 76 -0.9 30.4
23:55 1019 30.09 848 25.04 3 37.4 75 -1 30.2
24:00 1019 30.09 848 25.04 3 37.4 75 -1 30.3